createdAt,value
2019-05-10T00:00:29.108Z,91.51
2019-05-10T00:03:20.270Z,92.39
2019-05-10T00:06:07.238Z,92.82
2019-05-10T00:08:46.118Z,93.15
2019-05-10T00:11:39.237Z,93.10
2019-05-10T00:14:34.883Z,93.36
2019-05-10T00:17:11.010Z,93.36
2019-05-10T00:19:40.637Z,93.55
2019-05-10T00:22:10.199Z,93.74
2019-05-10T00:24:39.772Z,94.00
2019-05-10T00:27:09.688Z,94.01
2019-05-10T00:29:39.261Z,94.04
2019-05-10T00:32:08.765Z,94.14
2019-05-10T00:34:38.185Z,94.25
2019-05-10T00:37:09.785Z,94.34
2019-05-10T00:39:39.185Z,94.34
2019-05-10T00:42:08.799Z,94.31
2019-05-10T00:44:40.106Z,94.37
2019-05-10T00:47:09.728Z,93.79
2019-05-10T00:49:39.210Z,93.89
2019-05-10T00:52:08.747Z,93.92
2019-05-10T00:54:38.745Z,94.05
2019-05-10T00:57:08.219Z,93.84
2019-05-10T00:59:37.777Z,93.60
2019-05-10T01:02:07.192Z,93.40
2019-05-10T01:04:36.577Z,93.18
2019-05-10T01:07:05.931Z,93.54
2019-05-10T01:09:39.592Z,93.60
2019-05-10T01:12:09.012Z,93.68
2019-05-10T01:14:38.453Z,93.68
2019-05-10T01:17:07.885Z,93.53
2019-05-10T01:19:37.417Z,93.49
2019-05-10T01:22:06.815Z,94.10
2019-05-10T01:24:36.471Z,94.22
2019-05-10T01:27:06.164Z,94.54
2019-05-10T01:29:35.642Z,94.81
2019-05-10T01:32:05.205Z,94.97
2019-05-10T01:34:34.932Z,95.19
2019-05-10T01:37:04.382Z,95.59
2019-05-10T01:39:33.975Z,95.29
2019-05-10T01:42:03.815Z,95.60
2019-05-10T01:44:35.731Z,95.86
2019-05-10T01:47:05.076Z,95.74
2019-05-10T01:49:34.506Z,96.44
2019-05-10T01:52:03.947Z,96.30
2019-05-10T01:54:33.367Z,96.52
2019-05-10T01:57:02.823Z,96.59
2019-05-10T01:59:35.343Z,96.80
2019-05-10T02:02:04.774Z,97.11
2019-05-10T02:04:34.073Z,97.40
2019-05-10T02:07:03.464Z,97.42
2019-05-10T02:09:33.609Z,97.24
2019-05-10T02:12:03.233Z,97.03
2019-05-10T02:14:32.652Z,97.09
2019-05-10T02:17:02.008Z,97.11
2019-05-10T02:19:31.339Z,96.86
2019-05-10T02:22:00.737Z,96.69
2019-05-10T02:24:30.279Z,96.59
2019-05-10T02:26:59.771Z,96.63
2019-05-10T02:29:29.202Z,96.31
2019-05-10T02:31:58.574Z,95.74
2019-05-10T02:34:28.076Z,95.69
2019-05-10T02:36:57.455Z,95.58
2019-05-10T02:39:26.930Z,95.54
2019-05-10T02:41:56.744Z,96.15
2019-05-10T02:44:26.154Z,96.40
2019-05-10T02:46:55.551Z,96.92
2019-05-10T02:49:24.991Z,97.19
2019-05-10T02:51:54.358Z,97.53
2019-05-10T02:54:23.753Z,98.36
2019-05-10T02:56:54.231Z,98.00
2019-05-10T02:59:24.442Z,98.47
2019-05-10T03:01:56.993Z,98.59
2019-05-10T03:04:27.327Z,98.70
2019-05-10T03:07:04.858Z,98.96
2019-05-10T03:09:35.139Z,99.14
2019-05-10T03:12:25.017Z,99.47
2019-05-10T03:14:56.282Z,99.45
2019-05-10T03:17:26.856Z,99.92
2019-05-10T03:19:56.375Z,100.00
2019-05-10T03:22:27.187Z,100.00
2019-05-10T03:24:56.738Z,100.00
2019-05-10T03:27:26.272Z,100.00
2019-05-10T03:29:55.759Z,100.00
2019-05-10T03:32:25.130Z,100.00
2019-05-10T03:34:54.537Z,100.00
2019-05-10T03:37:24.089Z,100.00
2019-05-10T03:39:53.699Z,100.00
2019-05-10T03:42:23.184Z,100.00
2019-05-10T03:44:52.634Z,100.00
2019-05-10T03:47:22.097Z,100.00
2019-05-10T03:49:51.507Z,100.00
2019-05-10T03:52:20.889Z,100.00
2019-05-10T03:54:50.374Z,100.00
2019-05-10T03:57:19.781Z,100.00
2019-05-10T03:59:49.289Z,100.00
2019-05-10T04:02:18.826Z,100.00
2019-05-10T04:04:48.188Z,100.00
2019-05-10T04:07:17.588Z,100.00
2019-05-10T04:09:47.101Z,100.00
2019-05-10T04:12:16.553Z,100.00
2019-05-10T04:14:46.008Z,100.00
2019-05-10T04:17:15.535Z,100.00
2019-05-10T04:19:45.081Z,100.00
2019-05-10T04:22:14.521Z,100.00
2019-05-10T04:24:44.285Z,100.00
2019-05-10T04:27:30.519Z,100.00
2019-05-10T04:29:44.858Z,100.00
2019-05-10T04:32:14.282Z,100.00
2019-05-10T04:34:43.685Z,100.00
2019-05-10T04:37:13.144Z,100.00
2019-05-10T04:39:42.538Z,100.00
2019-05-10T04:42:11.934Z,100.00
2019-05-10T04:44:41.419Z,100.00
2019-05-10T04:47:10.824Z,100.00
2019-05-10T04:49:40.276Z,100.00
2019-05-10T04:52:09.712Z,100.00
2019-05-10T04:54:39.204Z,100.00
2019-05-10T04:57:08.652Z,100.00
2019-05-10T04:59:38.335Z,100.00
2019-05-10T05:02:07.852Z,100.00
2019-05-10T05:04:38.704Z,100.00
2019-05-10T05:07:08.147Z,100.00
2019-05-10T05:09:37.700Z,100.00
2019-05-10T05:12:07.304Z,100.00
2019-05-10T05:14:36.832Z,100.00
2019-05-10T05:17:06.310Z,100.00
2019-05-10T05:19:35.883Z,100.00
2019-05-10T05:22:05.384Z,100.00
2019-05-10T05:24:34.841Z,100.00
2019-05-10T05:27:04.298Z,100.00
2019-05-10T05:29:33.712Z,100.00
2019-05-10T05:32:03.708Z,100.00
2019-05-10T05:34:33.425Z,100.00
2019-05-10T05:37:02.926Z,100.00
2019-05-10T05:39:32.450Z,100.00
2019-05-10T05:42:01.952Z,100.00
2019-05-10T05:44:31.449Z,100.00
2019-05-10T05:47:04.404Z,100.00
2019-05-10T05:49:32.140Z,100.00
2019-05-10T05:52:01.654Z,100.00
2019-05-10T05:54:31.472Z,100.00
2019-05-10T05:57:00.888Z,100.00
2019-05-10T05:59:30.350Z,100.00
2019-05-10T06:02:00.879Z,100.00
2019-05-10T06:04:32.114Z,100.00
2019-05-10T06:07:04.361Z,100.00
2019-05-10T06:09:37.984Z,99.41
2019-05-10T06:12:07.354Z,99.88
2019-05-10T06:14:36.208Z,98.31
2019-05-10T06:17:05.675Z,98.29
2019-05-10T06:19:35.159Z,98.86
2019-05-10T06:22:06.746Z,98.74
2019-05-10T06:24:35.782Z,97.45
2019-05-10T06:27:06.425Z,97.61
2019-05-10T06:29:35.834Z,97.77
2019-05-10T06:32:08.527Z,97.30
2019-05-10T06:34:39.008Z,96.50
2019-05-10T06:37:09.120Z,97.37
2019-05-10T06:39:38.517Z,97.51
2019-05-10T06:42:07.958Z,95.25
2019-05-10T06:44:37.562Z,95.71
2019-05-10T06:47:08.174Z,96.16
2019-05-10T06:49:41.631Z,95.34
2019-05-10T06:52:09.480Z,94.89
2019-05-10T06:54:38.906Z,92.08
2019-05-10T06:57:11.337Z,91.45
2019-05-10T06:59:39.588Z,90.21
2019-05-10T07:02:09.084Z,89.96
2019-05-10T07:04:41.137Z,90.02
2019-05-10T07:07:22.079Z,87.89
2019-05-10T07:10:01.745Z,89.66
2019-05-10T07:12:15.216Z,89.52
2019-05-10T07:14:46.205Z,85.67
2019-05-10T07:17:14.424Z,84.46
2019-05-10T07:19:53.261Z,82.50
2019-05-10T07:22:15.559Z,79.95
2019-05-10T07:24:45.120Z,80.23
2019-05-10T07:27:14.682Z,82.10
2019-05-10T07:29:46.259Z,82.30
2019-05-10T07:32:16.460Z,79.89
2019-05-10T07:34:48.003Z,79.83
2019-05-10T07:37:17.821Z,80.11
2019-05-10T07:39:47.220Z,78.75
2019-05-10T07:42:16.662Z,79.45
2019-05-10T07:44:48.567Z,81.27
2019-05-10T07:47:17.483Z,77.73
2019-05-10T07:49:46.985Z,77.11
2019-05-10T07:52:16.516Z,78.97
2019-05-10T07:54:47.769Z,76.41
2019-05-10T07:57:18.758Z,77.28
2019-05-10T07:59:51.034Z,74.58
2019-05-10T08:02:20.179Z,76.12
2019-05-10T08:04:53.311Z,76.15
2019-05-10T08:07:20.637Z,73.74
2019-05-10T08:09:50.097Z,74.33
2019-05-10T08:12:19.711Z,75.78
2019-05-10T08:14:52.088Z,76.62
2019-05-10T08:17:20.245Z,77.82
2019-05-10T08:19:49.686Z,79.18
2019-05-10T08:22:19.057Z,80.00
2019-05-10T08:24:54.412Z,81.98
2019-05-10T08:27:19.677Z,82.88
2019-05-10T08:30:20.271Z,84.39
2019-05-10T08:32:36.995Z,84.38
2019-05-10T08:35:16.346Z,83.03
2019-05-10T08:37:38.150Z,78.50
2019-05-10T08:40:07.839Z,80.46
2019-05-10T08:42:47.881Z,76.82
2019-05-10T08:45:09.079Z,74.78
2019-05-10T08:47:38.638Z,75.81
2019-05-10T08:50:22.529Z,75.39
2019-05-10T08:52:42.110Z,74.71
2019-05-10T08:55:12.397Z,73.15
2019-05-10T08:57:47.995Z,70.87
2019-05-10T09:00:14.458Z,72.75
2019-05-10T09:02:43.869Z,73.04
2019-05-10T09:05:13.507Z,74.91
2019-05-10T09:07:45.287Z,75.02
2019-05-10T09:10:14.613Z,73.85
2019-05-10T09:12:50.916Z,72.90
2019-05-10T09:15:15.106Z,71.87
2019-05-10T09:17:44.619Z,70.01
2019-05-10T09:20:21.042Z,68.98
2019-05-10T09:22:45.817Z,68.40
2019-05-10T09:25:20.127Z,68.78
2019-05-10T09:27:46.875Z,68.55
2019-05-10T09:30:29.341Z,62.70
2019-05-10T09:33:00.994Z,63.29
2019-05-10T09:35:30.075Z,59.28
2019-05-10T09:38:01.976Z,60.92
2019-05-10T09:40:33.762Z,61.25
2019-05-10T09:43:09.492Z,61.99
2019-05-10T09:45:36.278Z,62.42
2019-05-10T09:48:05.814Z,62.26
2019-05-10T09:50:42.093Z,61.87
2019-05-10T09:53:10.281Z,63.51
2019-05-10T09:55:39.154Z,64.19
2019-05-10T09:58:09.131Z,64.88
2019-05-10T10:00:38.706Z,65.92
2019-05-10T10:03:08.549Z,66.95
2019-05-10T10:05:40.323Z,67.84
2019-05-10T10:08:10.961Z,69.41
2019-05-10T10:10:40.822Z,69.72
2019-05-10T10:13:13.584Z,70.68
2019-05-10T10:15:41.477Z,71.41
2019-05-10T10:18:12.622Z,71.36
2019-05-10T10:20:45.075Z,71.96
2019-05-10T10:23:13.270Z,71.18
2019-05-10T10:25:42.685Z,65.50
2019-05-10T10:28:17.151Z,64.79
2019-05-10T10:30:43.239Z,66.74
2019-05-10T10:33:22.447Z,64.78
2019-05-10T10:35:47.898Z,59.28
2019-05-10T10:38:17.895Z,61.87
2019-05-10T10:40:47.575Z,61.56
2019-05-10T10:43:17.998Z,59.02
2019-05-10T10:45:47.692Z,57.41
2019-05-10T10:48:17.881Z,57.06
2019-05-10T10:50:53.864Z,59.50
2019-05-10T10:53:18.816Z,60.68
2019-05-10T10:55:54.160Z,63.10
2019-05-10T10:58:19.492Z,64.48
2019-05-10T11:00:49.515Z,64.89
2019-05-10T11:03:24.090Z,65.11
2019-05-10T11:05:50.023Z,65.08
2019-05-10T11:08:19.386Z,63.78
2019-05-10T11:10:50.705Z,62.14
2019-05-10T11:13:39.886Z,59.54
2019-05-10T11:15:51.761Z,59.42
2019-05-10T11:18:21.776Z,58.55
2019-05-10T11:20:53.913Z,57.19
2019-05-10T11:23:24.484Z,58.70
2019-05-10T11:25:56.549Z,56.79
2019-05-10T11:28:32.491Z,60.87
2019-05-10T11:30:56.181Z,61.72
2019-05-10T11:33:30.175Z,63.33
2019-05-10T11:36:04.102Z,63.66
2019-05-10T11:38:31.564Z,63.40
2019-05-10T11:41:02.026Z,62.80
2019-05-10T11:43:32.083Z,58.10
2019-05-10T11:46:03.856Z,60.68
2019-05-10T11:48:37.190Z,60.36
2019-05-10T11:51:05.705Z,59.36
2019-05-10T11:53:35.765Z,58.64
2019-05-10T11:56:13.863Z,57.99
2019-05-10T11:58:49.866Z,58.06
2019-05-10T12:01:19.258Z,56.58
2019-05-10T12:03:47.587Z,56.28
2019-05-10T12:06:17.440Z,55.37
2019-05-10T12:08:46.950Z,56.71
2019-05-10T12:11:29.393Z,54.24
2019-05-10T12:13:47.575Z,50.48
2019-05-10T12:16:17.286Z,50.17
2019-05-10T12:19:04.278Z,44.15
2019-05-10T12:21:21.537Z,44.60
2019-05-10T12:23:51.882Z,44.03
2019-05-10T12:28:52.010Z,50.32
2019-05-10T12:31:23.291Z,49.81
2019-05-10T12:33:52.851Z,51.33
2019-05-10T12:36:27.308Z,53.12
2019-05-10T12:38:56.111Z,55.07
2019-05-10T12:41:25.255Z,52.05
2019-05-10T12:44:02.560Z,54.81
2019-05-10T12:46:25.851Z,54.28
2019-05-10T12:48:55.559Z,52.94
2019-05-10T12:51:27.076Z,51.58
2019-05-10T12:53:56.456Z,49.74
2019-05-10T12:56:25.813Z,52.42
2019-05-10T12:58:57.963Z,52.23
2019-05-10T13:01:31.884Z,50.44
2019-05-10T13:04:01.646Z,51.17
2019-05-10T13:06:29.313Z,52.78
2019-05-10T13:08:59.274Z,54.29
2019-05-10T13:11:28.858Z,54.56
2019-05-10T13:14:00.927Z,55.61
2019-05-10T13:16:29.345Z,55.11
2019-05-10T13:18:58.916Z,54.99
2019-05-10T13:21:34.356Z,55.72
2019-05-10T13:24:03.818Z,57.02
2019-05-10T13:26:33.359Z,56.42
2019-05-10T13:29:08.154Z,56.82
2019-05-10T13:31:42.935Z,54.36
2019-05-10T13:34:10.551Z,54.45
2019-05-10T13:36:40.100Z,54.77
2019-05-10T13:39:09.938Z,53.62
2019-05-10T13:41:39.860Z,51.74
2019-05-10T13:44:09.254Z,45.19
2019-05-10T13:46:38.645Z,45.30
2019-05-10T13:49:08.158Z,43.34
2019-05-10T13:51:37.681Z,42.24
2019-05-10T13:54:07.113Z,44.51
2019-05-10T13:56:37.084Z,44.00
2019-05-10T13:59:15.737Z,46.07
2019-05-10T14:01:37.787Z,46.44
2019-05-10T14:04:07.242Z,47.74
2019-05-10T14:06:36.833Z,47.97
2019-05-10T14:09:07.698Z,49.45
2019-05-10T14:11:40.984Z,49.42
2019-05-10T14:14:08.683Z,51.11
2019-05-10T14:16:38.198Z,52.23
2019-05-10T14:19:07.721Z,48.77
2019-05-10T14:21:37.448Z,48.29
2019-05-10T14:24:09.000Z,42.79
2019-05-10T14:26:38.149Z,36.92
2019-05-10T14:29:10.945Z,34.24
2019-05-10T14:31:38.784Z,38.02
2019-05-10T14:34:15.952Z,41.42
2019-05-10T14:36:41.384Z,43.06
2019-05-10T14:39:13.140Z,48.24
2019-05-10T14:41:45.372Z,50.20
2019-05-10T14:44:19.061Z,50.78
2019-05-10T14:46:48.574Z,50.55
2019-05-10T14:49:17.959Z,51.40
2019-05-10T14:51:58.617Z,51.79
2019-05-10T14:54:18.606Z,50.49
2019-05-10T14:56:48.011Z,49.66
2019-05-10T14:59:17.601Z,50.14
2019-05-10T15:01:47.290Z,50.29
2019-05-10T15:04:35.746Z,50.94
2019-05-10T15:06:48.978Z,50.80
2019-05-10T15:09:21.511Z,50.24
2019-05-10T15:11:49.881Z,50.31
2019-05-10T15:14:19.252Z,50.21
2019-05-10T15:16:48.754Z,50.43
2019-05-10T15:19:19.221Z,52.82
2019-05-10T15:21:50.790Z,53.82
2019-05-10T15:24:19.821Z,54.88
2019-05-10T15:26:49.335Z,55.56
2019-05-10T15:29:22.571Z,57.08
2019-05-10T15:31:50.067Z,56.14
2019-05-10T15:34:19.433Z,56.64
2019-05-10T15:36:48.929Z,57.10
2019-05-10T15:39:22.971Z,57.92
2019-05-10T15:41:59.187Z,57.06
2019-05-10T15:44:31.277Z,58.31
2019-05-10T15:46:58.667Z,59.57
2019-05-10T15:49:28.257Z,59.76
2019-05-10T15:52:16.254Z,60.21
2019-05-10T15:54:29.115Z,60.63
2019-05-10T15:56:58.607Z,60.67
2019-05-10T15:59:28.167Z,60.47
2019-05-10T16:01:57.626Z,60.18
2019-05-10T16:04:27.180Z,60.26
2019-05-10T16:06:56.641Z,58.91
2019-05-10T16:09:26.045Z,59.53
2019-05-10T16:12:01.304Z,59.26
2019-05-10T16:14:26.834Z,57.90
2019-05-10T16:16:56.356Z,57.54
2019-05-10T16:19:25.784Z,58.16
2019-05-10T16:21:58.015Z,58.83
2019-05-10T16:24:28.090Z,59.19
2019-05-10T16:27:01.859Z,59.58
2019-05-10T16:29:33.649Z,58.57
2019-05-10T16:32:02.851Z,59.36
2019-05-10T16:34:34.159Z,59.54
2019-05-10T16:37:03.334Z,59.68
2019-05-10T16:39:32.796Z,60.50
2019-05-10T16:42:02.304Z,61.26
2019-05-10T16:44:31.792Z,61.75
2019-05-10T16:47:01.314Z,62.18
2019-05-10T16:49:30.684Z,62.32
2019-05-10T16:52:00.147Z,62.53
2019-05-10T16:54:29.809Z,62.57
2019-05-10T16:57:01.036Z,62.54
2019-05-10T16:59:31.460Z,62.46
2019-05-10T17:02:04.614Z,62.29
2019-05-10T17:04:37.299Z,62.45
2019-05-10T17:07:03.325Z,62.39
2019-05-10T17:09:32.786Z,61.62
2019-05-10T17:12:02.172Z,59.72
2019-05-10T17:14:31.722Z,60.14
2019-05-10T17:17:01.176Z,59.81
2019-05-10T17:19:34.319Z,57.46
2019-05-10T17:22:01.748Z,57.53
2019-05-10T17:24:31.154Z,57.11
2019-05-10T17:27:00.697Z,57.57
2019-05-10T17:29:30.248Z,56.64
2019-05-10T17:31:59.720Z,57.29
2019-05-10T17:34:29.790Z,56.75
2019-05-10T17:36:59.780Z,56.23
2019-05-10T17:39:32.230Z,56.41
2019-05-10T17:42:03.177Z,56.24
2019-05-10T17:44:32.087Z,54.80
2019-05-10T17:47:01.489Z,54.40
2019-05-10T17:49:30.858Z,55.63
2019-05-10T17:52:00.268Z,56.09
2019-05-10T17:54:33.616Z,56.85
2019-05-10T17:57:00.739Z,57.46
2019-05-10T17:59:30.403Z,58.11
2019-05-10T18:01:59.862Z,58.79
2019-05-10T18:04:29.285Z,59.46
2019-05-10T18:06:58.667Z,60.17
2019-05-10T18:09:28.091Z,60.93
2019-05-10T18:11:57.578Z,61.71
2019-05-10T18:14:29.510Z,62.21
2019-05-10T18:16:58.366Z,62.90
2019-05-10T18:19:27.763Z,63.42
2019-05-10T18:22:00.695Z,64.09
2019-05-10T18:24:30.235Z,64.65
2019-05-10T18:26:59.876Z,65.46
2019-05-10T18:29:29.251Z,66.31
2019-05-10T18:31:58.901Z,67.06
2019-05-10T18:34:33.282Z,67.84
2019-05-10T18:36:59.346Z,68.60
2019-05-10T18:39:28.709Z,69.38
2019-05-10T18:41:58.207Z,70.08
2019-05-10T18:44:28.025Z,70.80
2019-05-10T18:46:57.505Z,71.49
2019-05-10T18:49:27.024Z,72.19
2019-05-10T18:52:03.518Z,72.85
2019-05-10T18:54:27.598Z,73.64
2019-05-10T18:56:56.978Z,74.27
2019-05-10T18:59:26.447Z,74.95
2019-05-10T19:01:55.902Z,75.58
2019-05-10T19:04:25.439Z,76.20
2019-05-10T19:07:09.161Z,76.88
2019-05-10T19:09:26.085Z,77.50
2019-05-10T19:11:55.498Z,78.13
2019-05-10T19:14:29.595Z,78.72
2019-05-10T19:16:56.078Z,79.33
2019-05-10T19:19:25.481Z,79.94
2019-05-10T19:21:54.967Z,80.65
2019-05-10T19:24:30.224Z,81.14
2019-05-10T19:26:55.586Z,81.86
2019-05-10T19:29:27.453Z,82.37
2019-05-10T19:31:56.239Z,82.80
2019-05-10T19:34:25.538Z,83.17
2019-05-10T19:36:54.938Z,83.91
2019-05-10T19:39:24.479Z,84.21
2019-05-10T19:42:03.235Z,84.38
2019-05-10T19:44:25.054Z,84.82
2019-05-10T19:46:54.598Z,85.24
2019-05-10T19:49:24.210Z,85.64
2019-05-10T19:51:53.623Z,85.93
2019-05-10T19:54:23.237Z,86.34
2019-05-10T19:56:55.394Z,86.66
2019-05-10T19:59:25.155Z,86.95
2019-05-10T20:01:54.666Z,87.25
2019-05-10T20:04:24.067Z,87.52
2019-05-10T20:06:53.619Z,87.74
2019-05-10T20:09:23.308Z,87.95
2019-05-10T20:11:52.711Z,88.29
2019-05-10T20:14:22.529Z,88.76
2019-05-10T20:16:53.478Z,89.14
2019-05-10T20:19:23.172Z,89.48
2019-05-10T20:21:52.582Z,89.77
2019-05-10T20:24:23.044Z,90.18
2019-05-10T20:26:52.484Z,90.42
2019-05-10T20:29:21.961Z,90.59
2019-05-10T20:31:51.818Z,90.78
2019-05-10T20:34:24.175Z,91.40
2019-05-10T20:36:52.887Z,91.85
2019-05-10T20:39:22.257Z,92.03
2019-05-10T20:41:51.764Z,92.13
2019-05-10T20:44:21.709Z,92.22
2019-05-10T20:46:51.179Z,92.46
2019-05-10T20:49:20.579Z,92.71
2019-05-10T20:51:52.708Z,92.92
2019-05-10T20:54:22.120Z,93.20
2019-05-10T20:56:51.508Z,93.55
2019-05-10T20:59:20.951Z,93.85
2019-05-10T21:01:50.379Z,93.99
2019-05-10T21:04:19.807Z,94.03
2019-05-10T21:06:49.276Z,94.17
2019-05-10T21:09:18.808Z,94.30
2019-05-10T21:11:48.306Z,94.60
2019-05-10T21:14:17.769Z,94.93
2019-05-10T21:16:47.501Z,95.16
2019-05-10T21:19:19.851Z,95.41
2019-05-10T21:21:48.173Z,96.14
2019-05-10T21:24:17.815Z,96.07
2019-05-10T21:26:47.275Z,96.30
2019-05-10T21:29:16.755Z,96.20
2019-05-10T21:31:46.271Z,96.15
2019-05-10T21:34:15.711Z,96.37
2019-05-10T21:36:45.251Z,96.73
2019-05-10T21:39:14.640Z,96.88
2019-05-10T21:41:44.153Z,97.48
2019-05-10T21:44:13.578Z,97.54
2019-05-10T21:46:42.991Z,97.62
2019-05-10T21:49:12.525Z,97.52
2019-05-10T21:51:42.508Z,97.55
2019-05-10T21:54:11.893Z,97.87
2019-05-10T21:56:41.465Z,98.58
2019-05-10T21:59:10.978Z,98.65
2019-05-10T22:01:40.485Z,98.94
2019-05-10T22:04:09.897Z,98.87
2019-05-10T22:06:39.386Z,98.83
2019-05-10T22:09:10.570Z,99.06
2019-05-10T22:11:40.058Z,99.31
2019-05-10T22:14:09.648Z,99.11
2019-05-10T22:16:40.042Z,99.24
2019-05-10T22:19:09.655Z,99.43
2019-05-10T22:21:39.131Z,99.61
2019-05-10T22:24:08.687Z,99.70
2019-05-10T22:26:38.174Z,99.74
2019-05-10T22:29:07.570Z,99.92
2019-05-10T22:31:37.094Z,100.00
2019-05-10T22:34:06.630Z,100.00
2019-05-10T22:36:36.110Z,100.00
2019-05-10T22:39:07.793Z,100.00
2019-05-10T22:41:37.571Z,100.00
2019-05-10T22:44:07.052Z,100.00
2019-05-10T22:46:36.490Z,100.00
2019-05-10T22:49:05.888Z,100.00
2019-05-10T22:51:35.416Z,100.00
2019-05-10T22:54:04.882Z,100.00
2019-05-10T22:56:34.329Z,100.00
2019-05-10T22:59:03.747Z,100.00
2019-05-10T23:01:33.750Z,100.00
2019-05-10T23:04:03.747Z,100.00
2019-05-10T23:06:33.357Z,100.00
2019-05-10T23:09:02.842Z,100.00
2019-05-10T23:11:32.371Z,100.00
2019-05-10T23:14:01.830Z,100.00
2019-05-10T23:16:31.218Z,100.00
2019-05-10T23:19:00.877Z,100.00
2019-05-10T23:21:30.390Z,100.00
2019-05-10T23:24:03.781Z,100.00
2019-05-10T23:26:33.130Z,100.00
2019-05-10T23:29:02.659Z,100.00
2019-05-10T23:31:35.336Z,100.00
2019-05-10T23:34:03.287Z,100.00
2019-05-10T23:36:32.765Z,100.00
2019-05-10T23:39:02.188Z,100.00
2019-05-10T23:41:31.705Z,100.00
2019-05-10T23:44:01.288Z,100.00
2019-05-10T23:46:30.697Z,100.00
2019-05-10T23:49:00.154Z,100.00
2019-05-10T23:51:29.601Z,100.00
2019-05-10T23:53:59.156Z,100.00
2019-05-10T23:56:28.658Z,100.00
2019-05-10T23:58:58.218Z,100.00
